sensor_id;sensor_type;location;lat;lon;timestamp;temperature;humidity
13405;DHT22;6773;51.192;7.024;2022-10-22T00:00:54;14.50;99.90
13405;DHT22;6773;51.192;7.024;2022-10-22T00:03:20;14.50;99.90
13405;DHT22;6773;51.192;7.024;2022-10-22T00:05:47;14.50;99.90
13405;DHT22;6773;51.192;7.024;2022-10-22T00:08:12;14.50;99.90
13405;DHT22;6773;51.192;7.024;2022-10-22T00:10:39;14.50;99.90
13405;DHT22;6773;51.192;7.024;2022-10-22T00:13:05;14.60;99.90
13405;DHT22;6773;51.192;7.024;2022-10-22T00:15:31;14.60;99.90
13405;DHT22;6773;51.192;7.024;2022-10-22T00:17:56;14.60;99.90
13405;DHT22;6773;51.192;7.024;2022-10-22T00:20:22;14.70;99.90
13405;DHT22;6773;51.192;7.024;2022-10-22T00:22:48;14.70;99.90
13405;DHT22;6773;51.192;7.024;2022-10-22T00:25:14;14.70;99.90
13405;DHT22;6773;51.192;7.024;2022-10-22T00:27:39;14.70;99.90
13405;DHT22;6773;51.192;7.024;2022-10-22T00:30:06;14.70;99.90
13405;DHT22;6773;51.192;7.024;2022-10-22T00:32:31;14.80;99.90
13405;DHT22;6773;51.192;7.024;2022-10-22T00:34:57;14.80;99.90
13405;DHT22;6773;51.192;7.024;2022-10-22T00:42:21;14.80;99.90
13405;DHT22;6773;51.192;7.024;2022-10-22T00:52:57;14.80;99.90
13405;DHT22;6773;51.192;7.024;2022-10-22T00:55:25;14.80;99.90
13405;DHT22;6773;51.192;7.024;2022-10-22T00:57:53;14.80;99.90
13405;DHT22;6773;51.192;7.024;2022-10-22T01:00:20;14.80;99.90
13405;DHT22;6773;51.192;7.024;2022-10-22T01:02:47;14.80;99.90
13405;DHT22;6773;51.192;7.024;2022-10-22T01:05:14;14.80;99.90
13405;DHT22;6773;51.192;7.024;2022-10-22T01:07:48;14.80;99.90
13405;DHT22;6773;51.192;7.024;2022-10-22T01:13:31;14.80;99.90
13405;DHT22;6773;51.192;7.024;2022-10-22T01:19:01;14.80;99.90
13405;DHT22;6773;51.192;7.024;2022-10-22T01:21:40;14.80;99.90
13405;DHT22;6773;51.192;7.024;2022-10-22T01:29:09;14.70;99.90
13405;DHT22;6773;51.192;7.024;2022-10-22T01:31:43;14.70;99.90
13405;DHT22;6773;51.192;7.024;2022-10-22T01:34:13;14.70;99.90
13405;DHT22;6773;51.192;7.024;2022-10-22T01:36:40;14.60;99.90
13405;DHT22;6773;51.192;7.024;2022-10-22T01:39:06;14.60;99.90
13405;DHT22;6773;51.192;7.024;2022-10-22T01:41:33;14.60;99.90
13405;DHT22;6773;51.192;7.024;2022-10-22T01:43:59;14.60;99.90
13405;DHT22;6773;51.192;7.024;2022-10-22T01:46:26;14.50;99.90
13405;DHT22;6773;51.192;7.024;2022-10-22T01:51:48;14.50;99.90
13405;DHT22;6773;51.192;7.024;2022-10-22T01:57:26;14.50;99.90
13405;DHT22;6773;51.192;7.024;2022-10-22T02:00:06;14.50;99.90
13405;DHT22;6773;51.192;7.024;2022-10-22T02:05:35;14.50;99.90
13405;DHT22;6773;51.192;7.024;2022-10-22T02:08:08;14.50;99.90
13405;DHT22;6773;51.192;7.024;2022-10-22T02:10:37;14.40;99.90
13405;DHT22;6773;51.192;7.024;2022-10-22T02:13:04;14.40;99.90
13405;DHT22;6773;51.192;7.024;2022-10-22T02:15:33;14.40;99.90
13405;DHT22;6773;51.192;7.024;2022-10-22T02:17:59;14.50;99.90
13405;DHT22;6773;51.192;7.024;2022-10-22T02:20:32;14.40;99.90
13405;DHT22;6773;51.192;7.024;2022-10-22T02:22:59;14.40;99.90
13405;DHT22;6773;51.192;7.024;2022-10-22T02:25:28;14.40;99.90
13405;DHT22;6773;51.192;7.024;2022-10-22T02:28:06;14.40;99.90
13405;DHT22;6773;51.192;7.024;2022-10-22T02:30:38;14.40;99.90
13405;DHT22;6773;51.192;7.024;2022-10-22T02:33:15;14.40;99.90
13405;DHT22;6773;51.192;7.024;2022-10-22T02:35:42;14.40;99.90
13405;DHT22;6773;51.192;7.024;2022-10-22T02:38:09;14.40;99.90
13405;DHT22;6773;51.192;7.024;2022-10-22T02:43:04;14.50;99.90
13405;DHT22;6773;51.192;7.024;2022-10-22T02:45:30;14.50;99.90
13405;DHT22;6773;51.192;7.024;2022-10-22T02:47:56;14.50;99.90
13405;DHT22;6773;51.192;7.024;2022-10-22T02:50:22;14.40;99.90
13405;DHT22;6773;51.192;7.024;2022-10-22T02:55:13;14.40;99.90
13405;DHT22;6773;51.192;7.024;2022-10-22T03:00:07;14.40;99.90
13405;DHT22;6773;51.192;7.024;2022-10-22T03:02:33;14.40;99.90
13405;DHT22;6773;51.192;7.024;2022-10-22T03:04:58;14.30;99.90
13405;DHT22;6773;51.192;7.024;2022-10-22T03:07:24;14.30;99.90
13405;DHT22;6773;51.192;7.024;2022-10-22T03:09:50;14.30;99.90
13405;DHT22;6773;51.192;7.024;2022-10-22T03:12:15;14.30;99.90
13405;DHT22;6773;51.192;7.024;2022-10-22T03:14:41;14.30;99.90
13405;DHT22;6773;51.192;7.024;2022-10-22T03:22:05;14.30;99.90
13405;DHT22;6773;51.192;7.024;2022-10-22T03:24:37;14.30;99.90
13405;DHT22;6773;51.192;7.024;2022-10-22T03:27:04;14.30;99.90
13405;DHT22;6773;51.192;7.024;2022-10-22T03:29:30;14.30;99.90
13405;DHT22;6773;51.192;7.024;2022-10-22T03:36:50;14.30;99.90
13405;DHT22;6773;51.192;7.024;2022-10-22T03:39:17;14.30;99.90
13405;DHT22;6773;51.192;7.024;2022-10-22T03:41:44;14.30;99.90
13405;DHT22;6773;51.192;7.024;2022-10-22T03:44:10;14.30;99.90
13405;DHT22;6773;51.192;7.024;2022-10-22T03:46:36;14.40;99.90
13405;DHT22;6773;51.192;7.024;2022-10-22T03:49:01;14.40;99.90
13405;DHT22;6773;51.192;7.024;2022-10-22T03:51:27;14.30;99.90
13405;DHT22;6773;51.192;7.024;2022-10-22T03:53:53;14.30;99.90
13405;DHT22;6773;51.192;7.024;2022-10-22T03:56:19;14.30;99.90
13405;DHT22;6773;51.192;7.024;2022-10-22T04:01:12;14.30;99.90
13405;DHT22;6773;51.192;7.024;2022-10-22T04:03:38;14.30;99.90
13405;DHT22;6773;51.192;7.024;2022-10-22T04:06:10;14.30;99.90
13405;DHT22;6773;51.192;7.024;2022-10-22T04:11:02;14.30;99.90
13405;DHT22;6773;51.192;7.024;2022-10-22T04:18:21;14.30;99.90
13405;DHT22;6773;51.192;7.024;2022-10-22T04:20:47;14.30;99.90
13405;DHT22;6773;51.192;7.024;2022-10-22T04:23:13;14.30;99.90
13405;DHT22;6773;51.192;7.024;2022-10-22T04:25:38;14.30;99.90
13405;DHT22;6773;51.192;7.024;2022-10-22T04:28:08;14.30;99.90
13405;DHT22;6773;51.192;7.024;2022-10-22T04:30:35;14.30;99.90
13405;DHT22;6773;51.192;7.024;2022-10-22T04:33:01;14.30;99.90
13405;DHT22;6773;51.192;7.024;2022-10-22T04:35:27;14.30;99.90
13405;DHT22;6773;51.192;7.024;2022-10-22T04:37:54;14.30;99.90
13405;DHT22;6773;51.192;7.024;2022-10-22T04:47:39;14.20;99.90
13405;DHT22;6773;51.192;7.024;2022-10-22T04:50:05;14.20;99.90
13405;DHT22;6773;51.192;7.024;2022-10-22T04:52:31;14.10;99.90
13405;DHT22;6773;51.192;7.024;2022-10-22T04:54:57;14.10;99.90
13405;DHT22;6773;51.192;7.024;2022-10-22T04:57:22;14.10;99.90
13405;DHT22;6773;51.192;7.024;2022-10-22T04:59:48;14.00;99.90
13405;DHT22;6773;51.192;7.024;2022-10-22T05:02:13;14.00;99.90
13405;DHT22;6773;51.192;7.024;2022-10-22T05:07:05;14.00;99.90
13405;DHT22;6773;51.192;7.024;2022-10-22T05:09:31;14.00;99.90
13405;DHT22;6773;51.192;7.024;2022-10-22T05:14:23;14.00;99.90
13405;DHT22;6773;51.192;7.024;2022-10-22T05:16:50;13.90;99.90
13405;DHT22;6773;51.192;7.024;2022-10-22T05:19:21;13.90;99.90
13405;DHT22;6773;51.192;7.024;2022-10-22T05:21:52;13.80;99.90
13405;DHT22;6773;51.192;7.024;2022-10-22T05:24:18;13.80;99.90
13405;DHT22;6773;51.192;7.024;2022-10-22T05:26:43;13.70;99.90
13405;DHT22;6773;51.192;7.024;2022-10-22T05:29:09;13.70;99.90
13405;DHT22;6773;51.192;7.024;2022-10-22T05:34:01;13.60;99.90
13405;DHT22;6773;51.192;7.024;2022-10-22T05:38:53;13.60;99.90
13405;DHT22;6773;51.192;7.024;2022-10-22T05:41:21;13.60;99.90
13405;DHT22;6773;51.192;7.024;2022-10-22T05:43:46;13.60;99.90
13405;DHT22;6773;51.192;7.024;2022-10-22T05:46:17;13.60;99.90
13405;DHT22;6773;51.192;7.024;2022-10-22T05:51:11;13.60;99.90
13405;DHT22;6773;51.192;7.024;2022-10-22T05:53:39;13.60;99.90
13405;DHT22;6773;51.192;7.024;2022-10-22T05:56:08;13.60;99.90
13405;DHT22;6773;51.192;7.024;2022-10-22T05:58:35;13.60;99.90
13405;DHT22;6773;51.192;7.024;2022-10-22T06:01:13;13.60;99.90
13405;DHT22;6773;51.192;7.024;2022-10-22T06:08:46;13.70;99.90
13405;DHT22;6773;51.192;7.024;2022-10-22T06:11:12;13.70;99.90
13405;DHT22;6773;51.192;7.024;2022-10-22T06:13:38;13.70;99.90
13405;DHT22;6773;51.192;7.024;2022-10-22T06:16:04;13.60;99.90
13405;DHT22;6773;51.192;7.024;2022-10-22T06:18:29;13.70;99.90
13405;DHT22;6773;51.192;7.024;2022-10-22T06:20:55;13.70;99.90
13405;DHT22;6773;51.192;7.024;2022-10-22T06:23:20;13.70;99.90
13405;DHT22;6773;51.192;7.024;2022-10-22T06:25:55;13.80;99.90
13405;DHT22;6773;51.192;7.024;2022-10-22T06:28:21;13.90;99.90
13405;DHT22;6773;51.192;7.024;2022-10-22T06:33:13;14.10;99.90
13405;DHT22;6773;51.192;7.024;2022-10-22T06:38:04;14.40;99.90
13405;DHT22;6773;51.192;7.024;2022-10-22T06:40:31;14.60;99.90
13405;DHT22;6773;51.192;7.024;2022-10-22T06:42:58;14.70;99.90
13405;DHT22;6773;51.192;7.024;2022-10-22T06:45:24;14.80;99.90
13405;DHT22;6773;51.192;7.024;2022-10-22T06:50:16;15.10;99.90
13405;DHT22;6773;51.192;7.024;2022-10-22T06:52:42;15.20;99.90
13405;DHT22;6773;51.192;7.024;2022-10-22T06:55:08;15.20;99.90
13405;DHT22;6773;51.192;7.024;2022-10-22T06:57:33;15.30;99.90
13405;DHT22;6773;51.192;7.024;2022-10-22T06:59:59;15.20;99.90
13405;DHT22;6773;51.192;7.024;2022-10-22T07:12:11;14.60;99.90
13405;DHT22;6773;51.192;7.024;2022-10-22T07:14:38;14.60;99.90
13405;DHT22;6773;51.192;7.024;2022-10-22T07:19:29;14.70;99.90
13405;DHT22;6773;51.192;7.024;2022-10-22T07:21:56;14.90;99.90
13405;DHT22;6773;51.192;7.024;2022-10-22T07:24:21;15.10;99.90
13405;DHT22;6773;51.192;7.024;2022-10-22T07:26:47;15.20;99.90
13405;DHT22;6773;51.192;7.024;2022-10-22T07:29:13;15.30;99.90
13405;DHT22;6773;51.192;7.024;2022-10-22T07:31:40;15.30;99.90
13405;DHT22;6773;51.192;7.024;2022-10-22T07:34:06;15.50;99.90
13405;DHT22;6773;51.192;7.024;2022-10-22T07:36:31;15.60;99.90
13405;DHT22;6773;51.192;7.024;2022-10-22T07:38:58;15.70;99.90
13405;DHT22;6773;51.192;7.024;2022-10-22T07:41:25;15.70;99.90
13405;DHT22;6773;51.192;7.024;2022-10-22T07:43:51;15.80;99.90
13405;DHT22;6773;51.192;7.024;2022-10-22T07:46:17;15.80;99.90
13405;DHT22;6773;51.192;7.024;2022-10-22T07:48:43;16.00;99.90
13405;DHT22;6773;51.192;7.024;2022-10-22T07:51:08;16.10;99.90
13405;DHT22;6773;51.192;7.024;2022-10-22T07:56:00;16.40;99.90
13405;DHT22;6773;51.192;7.024;2022-10-22T07:58:25;16.40;99.90
13405;DHT22;6773;51.192;7.024;2022-10-22T08:00:54;16.20;99.90
13405;DHT22;6773;51.192;7.024;2022-10-22T08:03:20;16.10;99.90
13405;DHT22;6773;51.192;7.024;2022-10-22T08:05:46;16.00;99.90
13405;DHT22;6773;51.192;7.024;2022-10-22T08:08:14;15.90;99.90
13405;DHT22;6773;51.192;7.024;2022-10-22T08:13:06;15.70;99.90
13405;DHT22;6773;51.192;7.024;2022-10-22T08:15:32;15.60;99.90
13405;DHT22;6773;51.192;7.024;2022-10-22T08:17:58;15.60;99.90
13405;DHT22;6773;51.192;7.024;2022-10-22T08:25:16;15.40;99.90
13405;DHT22;6773;51.192;7.024;2022-10-22T08:30:09;15.30;99.90
13405;DHT22;6773;51.192;7.024;2022-10-22T08:32:35;15.30;99.90
13405;DHT22;6773;51.192;7.024;2022-10-22T08:35:00;15.30;99.90
13405;DHT22;6773;51.192;7.024;2022-10-22T08:37:26;15.20;99.90
13405;DHT22;6773;51.192;7.024;2022-10-22T08:39:52;15.20;99.90
13405;DHT22;6773;51.192;7.024;2022-10-22T08:48:00;15.20;99.90
13405;DHT22;6773;51.192;7.024;2022-10-22T08:50:36;15.20;99.90
13405;DHT22;6773;51.192;7.024;2022-10-22T08:53:11;15.20;99.90
13405;DHT22;6773;51.192;7.024;2022-10-22T09:03:37;15.30;99.90
13405;DHT22;6773;51.192;7.024;2022-10-22T09:06:20;15.30;99.90
13405;DHT22;6773;51.192;7.024;2022-10-22T09:08:47;15.30;99.90
13405;DHT22;6773;51.192;7.024;2022-10-22T09:13:52;15.40;99.90
13405;DHT22;6773;51.192;7.024;2022-10-22T09:16:45;15.50;99.90
13405;DHT22;6773;51.192;7.024;2022-10-22T09:22:07;15.60;99.90
13405;DHT22;6773;51.192;7.024;2022-10-22T09:24:37;15.60;99.90
13405;DHT22;6773;51.192;7.024;2022-10-22T09:27:12;15.70;99.90
13405;DHT22;6773;51.192;7.024;2022-10-22T09:29:38;15.70;99.90
13405;DHT22;6773;51.192;7.024;2022-10-22T09:32:04;15.70;99.90
13405;DHT22;6773;51.192;7.024;2022-10-22T09:34:30;15.70;99.90
13405;DHT22;6773;51.192;7.024;2022-10-22T09:36:57;15.70;99.90
13405;DHT22;6773;51.192;7.024;2022-10-22T09:39:47;15.80;99.90
13405;DHT22;6773;51.192;7.024;2022-10-22T09:42:15;15.80;99.90
13405;DHT22;6773;51.192;7.024;2022-10-22T09:44:40;15.80;99.90
13405;DHT22;6773;51.192;7.024;2022-10-22T09:52:34;15.70;99.90
13405;DHT22;6773;51.192;7.024;2022-10-22T09:55:15;15.70;99.90
13405;DHT22;6773;51.192;7.024;2022-10-22T09:57:41;15.70;99.90
13405;DHT22;6773;51.192;7.024;2022-10-22T10:00:09;15.70;99.90
13405;DHT22;6773;51.192;7.024;2022-10-22T10:02:39;15.70;99.90
13405;DHT22;6773;51.192;7.024;2022-10-22T10:05:17;15.80;99.90
13405;DHT22;6773;51.192;7.024;2022-10-22T10:07:43;15.80;99.90
13405;DHT22;6773;51.192;7.024;2022-10-22T10:21:31;15.80;99.90
13405;DHT22;6773;51.192;7.024;2022-10-22T10:26:49;15.80;99.90
13405;DHT22;6773;51.192;7.024;2022-10-22T10:37:29;15.80;99.90
13405;DHT22;6773;51.192;7.024;2022-10-22T10:42:59;15.80;99.90
13405;DHT22;6773;51.192;7.024;2022-10-22T10:45:29;15.70;99.90
13405;DHT22;6773;51.192;7.024;2022-10-22T10:53:27;15.80;99.90
13405;DHT22;6773;51.192;7.024;2022-10-22T10:58:51;15.90;99.90
13405;DHT22;6773;51.192;7.024;2022-10-22T11:01:29;15.90;99.90
13405;DHT22;6773;51.192;7.024;2022-10-22T11:06:58;15.90;99.90
13405;DHT22;6773;51.192;7.024;2022-10-22T11:09:38;15.80;99.90
13405;DHT22;6773;51.192;7.024;2022-10-22T11:12:11;15.90;99.90
13405;DHT22;6773;51.192;7.024;2022-10-22T11:15:15;15.80;99.90
13405;DHT22;6773;51.192;7.024;2022-10-22T11:17:45;15.80;99.90
13405;DHT22;6773;51.192;7.024;2022-10-22T11:20:23;15.80;99.90
13405;DHT22;6773;51.192;7.024;2022-10-22T11:22:58;15.80;99.90
13405;DHT22;6773;51.192;7.024;2022-10-22T11:25:30;15.80;99.90
13405;DHT22;6773;51.192;7.024;2022-10-22T11:28:10;15.70;99.90
13405;DHT22;6773;51.192;7.024;2022-10-22T11:30:39;15.70;99.90
13405;DHT22;6773;51.192;7.024;2022-10-22T11:33:14;15.70;99.90
13405;DHT22;6773;51.192;7.024;2022-10-22T11:35:43;15.70;99.90
13405;DHT22;6773;51.192;7.024;2022-10-22T11:38:19;15.70;99.90
13405;DHT22;6773;51.192;7.024;2022-10-22T11:41:09;15.70;99.90
13405;DHT22;6773;51.192;7.024;2022-10-22T11:44:10;15.70;99.90
13405;DHT22;6773;51.192;7.024;2022-10-22T11:49:28;15.70;99.90
13405;DHT22;6773;51.192;7.024;2022-10-22T11:52:46;15.70;99.90
13405;DHT22;6773;51.192;7.024;2022-10-22T11:57:59;15.70;99.90
13405;DHT22;6773;51.192;7.024;2022-10-22T12:00:38;15.70;99.90
13405;DHT22;6773;51.192;7.024;2022-10-22T12:21:37;16.10;99.90
13405;DHT22;6773;51.192;7.024;2022-10-22T12:24:04;16.20;99.90
13405;DHT22;6773;51.192;7.024;2022-10-22T12:26:31;16.40;99.90
13405;DHT22;6773;51.192;7.024;2022-10-22T12:29:01;16.40;99.90
13405;DHT22;6773;51.192;7.024;2022-10-22T12:31:27;16.40;99.90
13405;DHT22;6773;51.192;7.024;2022-10-22T12:33:59;16.30;99.90
13405;DHT22;6773;51.192;7.024;2022-10-22T12:36:26;16.40;99.90
13405;DHT22;6773;51.192;7.024;2022-10-22T12:38:52;16.40;99.90
13405;DHT22;6773;51.192;7.024;2022-10-22T12:41:19;16.40;99.90
13405;DHT22;6773;51.192;7.024;2022-10-22T12:43:45;16.40;99.90
13405;DHT22;6773;51.192;7.024;2022-10-22T12:46:12;16.40;99.90
13405;DHT22;6773;51.192;7.024;2022-10-22T12:48:43;16.50;99.90
13405;DHT22;6773;51.192;7.024;2022-10-22T12:51:18;16.60;99.90
13405;DHT22;6773;51.192;7.024;2022-10-22T12:56:17;16.70;99.90
13405;DHT22;6773;51.192;7.024;2022-10-22T12:58:47;16.90;99.90
13405;DHT22;6773;51.192;7.024;2022-10-22T13:01:15;16.90;99.90
13405;DHT22;6773;51.192;7.024;2022-10-22T13:03:44;16.90;99.90
13405;DHT22;6773;51.192;7.024;2022-10-22T13:06:28;16.80;99.90
13405;DHT22;6773;51.192;7.024;2022-10-22T13:11:52;16.70;99.90
13405;DHT22;6773;51.192;7.024;2022-10-22T13:14:32;16.70;99.90
13405;DHT22;6773;51.192;7.024;2022-10-22T13:17:18;16.70;99.90
13405;DHT22;6773;51.192;7.024;2022-10-22T13:19:46;16.70;99.90
13405;DHT22;6773;51.192;7.024;2022-10-22T13:22:35;16.70;99.90
13405;DHT22;6773;51.192;7.024;2022-10-22T13:25:22;16.80;99.90
13405;DHT22;6773;51.192;7.024;2022-10-22T13:27:49;16.80;99.90
13405;DHT22;6773;51.192;7.024;2022-10-22T13:30:22;16.80;99.90
13405;DHT22;6773;51.192;7.024;2022-10-22T13:32:53;16.80;99.90
13405;DHT22;6773;51.192;7.024;2022-10-22T13:35:23;16.70;99.90
13405;DHT22;6773;51.192;7.024;2022-10-22T13:37:49;16.70;99.90
13405;DHT22;6773;51.192;7.024;2022-10-22T13:40:15;16.80;99.90
13405;DHT22;6773;51.192;7.024;2022-10-22T13:42:41;16.80;99.90
13405;DHT22;6773;51.192;7.024;2022-10-22T13:45:06;16.70;99.90
13405;DHT22;6773;51.192;7.024;2022-10-22T13:47:32;16.70;99.90
13405;DHT22;6773;51.192;7.024;2022-10-22T13:50:03;16.70;99.90
13405;DHT22;6773;51.192;7.024;2022-10-22T13:55:16;16.70;99.90
13405;DHT22;6773;51.192;7.024;2022-10-22T14:00:14;16.90;99.90
13405;DHT22;6773;51.192;7.024;2022-10-22T14:02:40;17.10;99.90
13405;DHT22;6773;51.192;7.024;2022-10-22T14:07:34;17.50;99.90
13405;DHT22;6773;51.192;7.024;2022-10-22T14:12:26;17.40;99.90
13405;DHT22;6773;51.192;7.024;2022-10-22T14:14:53;17.40;99.90
13405;DHT22;6773;51.192;7.024;2022-10-22T14:17:18;17.30;99.90
13405;DHT22;6773;51.192;7.024;2022-10-22T14:19:46;17.40;99.90
13405;DHT22;6773;51.192;7.024;2022-10-22T14:22:17;17.60;99.90
13405;DHT22;6773;51.192;7.024;2022-10-22T14:24:43;17.70;99.90
13405;DHT22;6773;51.192;7.024;2022-10-22T14:27:13;17.50;99.90
13405;DHT22;6773;51.192;7.024;2022-10-22T14:29:39;17.40;99.90
13405;DHT22;6773;51.192;7.024;2022-10-22T14:32:15;17.30;99.90
13405;DHT22;6773;51.192;7.024;2022-10-22T14:34:41;17.30;99.90
13405;DHT22;6773;51.192;7.024;2022-10-22T14:37:16;17.30;99.90
13405;DHT22;6773;51.192;7.024;2022-10-22T14:39:42;17.20;99.90
13405;DHT22;6773;51.192;7.024;2022-10-22T14:42:10;17.20;99.90
13405;DHT22;6773;51.192;7.024;2022-10-22T14:44:35;17.30;99.90
13405;DHT22;6773;51.192;7.024;2022-10-22T14:47:01;17.30;99.90
13405;DHT22;6773;51.192;7.024;2022-10-22T14:49:26;17.20;99.90
13405;DHT22;6773;51.192;7.024;2022-10-22T14:51:52;17.20;99.90
13405;DHT22;6773;51.192;7.024;2022-10-22T14:56:43;17.00;99.90
13405;DHT22;6773;51.192;7.024;2022-10-22T15:01:35;17.10;99.90
13405;DHT22;6773;51.192;7.024;2022-10-22T15:04:01;17.30;99.90
13405;DHT22;6773;51.192;7.024;2022-10-22T15:06:26;17.50;99.90
13405;DHT22;6773;51.192;7.024;2022-10-22T15:08:52;17.70;99.90
13405;DHT22;6773;51.192;7.024;2022-10-22T15:11:17;18.00;99.90
13405;DHT22;6773;51.192;7.024;2022-10-22T15:13:43;18.50;99.90
13405;DHT22;6773;51.192;7.024;2022-10-22T15:16:10;19.20;99.90
13405;DHT22;6773;51.192;7.024;2022-10-22T15:18:36;19.60;99.90
13405;DHT22;6773;51.192;7.024;2022-10-22T15:21:04;19.60;99.90
13405;DHT22;6773;51.192;7.024;2022-10-22T15:23:30;19.70;99.90
13405;DHT22;6773;51.192;7.024;2022-10-22T15:25:57;19.70;99.90
13405;DHT22;6773;51.192;7.024;2022-10-22T15:28:23;19.70;99.90
13405;DHT22;6773;51.192;7.024;2022-10-22T15:30:58;19.60;99.90
13405;DHT22;6773;51.192;7.024;2022-10-22T15:33:24;19.10;99.90
13405;DHT22;6773;51.192;7.024;2022-10-22T15:35:50;18.60;99.90
13405;DHT22;6773;51.192;7.024;2022-10-22T15:38:16;18.30;99.90
13405;DHT22;6773;51.192;7.024;2022-10-22T15:40:42;17.90;99.90
13405;DHT22;6773;51.192;7.024;2022-10-22T15:43:08;17.60;99.90
13405;DHT22;6773;51.192;7.024;2022-10-22T15:47:59;17.00;99.90
13405;DHT22;6773;51.192;7.024;2022-10-22T15:50:25;16.80;99.90
13405;DHT22;6773;51.192;7.024;2022-10-22T15:55:18;16.50;99.90
13405;DHT22;6773;51.192;7.024;2022-10-22T15:57:43;16.40;99.90
13405;DHT22;6773;51.192;7.024;2022-10-22T16:00:09;16.40;99.90
13405;DHT22;6773;51.192;7.024;2022-10-22T16:02:35;16.30;99.90
13405;DHT22;6773;51.192;7.024;2022-10-22T16:09:57;16.20;99.90
13405;DHT22;6773;51.192;7.024;2022-10-22T16:14:49;16.10;99.90
13405;DHT22;6773;51.192;7.024;2022-10-22T16:17:15;16.10;99.90
13405;DHT22;6773;51.192;7.024;2022-10-22T16:19:41;16.10;99.90
13405;DHT22;6773;51.192;7.024;2022-10-22T16:22:08;16.00;99.90
13405;DHT22;6773;51.192;7.024;2022-10-22T16:24:36;16.00;99.90
13405;DHT22;6773;51.192;7.024;2022-10-22T16:27:05;15.90;99.90
13405;DHT22;6773;51.192;7.024;2022-10-22T16:29:30;15.90;99.90
13405;DHT22;6773;51.192;7.024;2022-10-22T16:31:56;15.80;99.90
13405;DHT22;6773;51.192;7.024;2022-10-22T16:34:22;15.70;99.90
13405;DHT22;6773;51.192;7.024;2022-10-22T16:36:47;15.70;99.90
13405;DHT22;6773;51.192;7.024;2022-10-22T16:39:13;15.70;99.90
13405;DHT22;6773;51.192;7.024;2022-10-22T16:41:39;15.60;99.90
13405;DHT22;6773;51.192;7.024;2022-10-22T16:44:06;15.60;99.90
13405;DHT22;6773;51.192;7.024;2022-10-22T16:46:33;15.60;99.90
13405;DHT22;6773;51.192;7.024;2022-10-22T16:49:01;15.50;99.90
13405;DHT22;6773;51.192;7.024;2022-10-22T16:51:27;15.40;99.90
13405;DHT22;6773;51.192;7.024;2022-10-22T16:53:54;15.30;99.90
13405;DHT22;6773;51.192;7.024;2022-10-22T16:56:20;15.30;99.90
13405;DHT22;6773;51.192;7.024;2022-10-22T16:58:48;15.20;99.90
13405;DHT22;6773;51.192;7.024;2022-10-22T17:01:15;15.10;99.90
13405;DHT22;6773;51.192;7.024;2022-10-22T17:06:07;15.10;99.90
13405;DHT22;6773;51.192;7.024;2022-10-22T17:08:34;15.10;99.90
13405;DHT22;6773;51.192;7.024;2022-10-22T17:11:07;15.10;99.90
13405;DHT22;6773;51.192;7.024;2022-10-22T17:13:34;15.10;99.90
13405;DHT22;6773;51.192;7.024;2022-10-22T17:16:04;15.10;99.90
13405;DHT22;6773;51.192;7.024;2022-10-22T17:18:31;15.10;99.90
13405;DHT22;6773;51.192;7.024;2022-10-22T17:20:57;15.10;99.90
13405;DHT22;6773;51.192;7.024;2022-10-22T17:23:26;15.00;99.90
13405;DHT22;6773;51.192;7.024;2022-10-22T17:25:59;15.00;99.90
13405;DHT22;6773;51.192;7.024;2022-10-22T17:28:26;14.90;99.90
13405;DHT22;6773;51.192;7.024;2022-10-22T17:31:06;14.90;99.90
13405;DHT22;6773;51.192;7.024;2022-10-22T17:33:33;14.90;99.90
13405;DHT22;6773;51.192;7.024;2022-10-22T17:35:59;14.90;99.90
13405;DHT22;6773;51.192;7.024;2022-10-22T17:38:25;14.80;99.90
13405;DHT22;6773;51.192;7.024;2022-10-22T17:40:51;14.80;99.90
13405;DHT22;6773;51.192;7.024;2022-10-22T17:50:39;14.80;99.90
13405;DHT22;6773;51.192;7.024;2022-10-22T17:53:05;14.70;99.90
13405;DHT22;6773;51.192;7.024;2022-10-22T17:55:32;14.70;99.90
13405;DHT22;6773;51.192;7.024;2022-10-22T17:57:59;14.70;99.90
13405;DHT22;6773;51.192;7.024;2022-10-22T18:00:25;14.70;99.90
13405;DHT22;6773;51.192;7.024;2022-10-22T18:02:50;14.80;99.90
13405;DHT22;6773;51.192;7.024;2022-10-22T18:05:16;14.70;99.90
13405;DHT22;6773;51.192;7.024;2022-10-22T18:07:41;14.70;99.90
13405;DHT22;6773;51.192;7.024;2022-10-22T18:10:07;14.80;99.90
13405;DHT22;6773;51.192;7.024;2022-10-22T18:12:34;14.70;99.90
13405;DHT22;6773;51.192;7.024;2022-10-22T18:14:59;14.80;99.90
13405;DHT22;6773;51.192;7.024;2022-10-22T18:19:51;14.70;99.90
13405;DHT22;6773;51.192;7.024;2022-10-22T18:22:18;14.70;99.90
13405;DHT22;6773;51.192;7.024;2022-10-22T18:24:43;14.70;99.90
13405;DHT22;6773;51.192;7.024;2022-10-22T18:27:09;14.70;99.90
13405;DHT22;6773;51.192;7.024;2022-10-22T18:32:01;14.60;99.90
13405;DHT22;6773;51.192;7.024;2022-10-22T18:36:56;14.70;99.90
13405;DHT22;6773;51.192;7.024;2022-10-22T18:39:22;14.60;99.90
13405;DHT22;6773;51.192;7.024;2022-10-22T18:41:48;14.60;99.90
13405;DHT22;6773;51.192;7.024;2022-10-22T18:44:14;14.60;99.90
13405;DHT22;6773;51.192;7.024;2022-10-22T18:46:40;14.60;99.90
13405;DHT22;6773;51.192;7.024;2022-10-22T18:49:06;14.60;99.90
13405;DHT22;6773;51.192;7.024;2022-10-22T18:51:33;14.50;99.90
13405;DHT22;6773;51.192;7.024;2022-10-22T18:54:00;14.50;99.90
13405;DHT22;6773;51.192;7.024;2022-10-22T18:56:26;14.50;99.90
13405;DHT22;6773;51.192;7.024;2022-10-22T19:01:23;14.40;99.90
13405;DHT22;6773;51.192;7.024;2022-10-22T19:06:22;14.40;99.90
13405;DHT22;6773;51.192;7.024;2022-10-22T19:11:16;14.40;99.90
13405;DHT22;6773;51.192;7.024;2022-10-22T19:13:41;14.40;99.90
13405;DHT22;6773;51.192;7.024;2022-10-22T19:16:10;14.50;99.90
13405;DHT22;6773;51.192;7.024;2022-10-22T19:18:36;14.50;99.90
13405;DHT22;6773;51.192;7.024;2022-10-22T19:21:03;14.50;99.90
13405;DHT22;6773;51.192;7.024;2022-10-22T19:23:29;14.60;99.90
13405;DHT22;6773;51.192;7.024;2022-10-22T19:28:30;14.50;99.90
13405;DHT22;6773;51.192;7.024;2022-10-22T19:30:56;14.60;99.90
13405;DHT22;6773;51.192;7.024;2022-10-22T19:35:48;14.50;99.90
13405;DHT22;6773;51.192;7.024;2022-10-22T19:38:13;14.60;99.90
13405;DHT22;6773;51.192;7.024;2022-10-22T19:40:42;14.50;99.90
13405;DHT22;6773;51.192;7.024;2022-10-22T19:43:08;14.50;99.90
13405;DHT22;6773;51.192;7.024;2022-10-22T19:45:33;14.50;99.90
13405;DHT22;6773;51.192;7.024;2022-10-22T19:50:25;14.50;99.90
13405;DHT22;6773;51.192;7.024;2022-10-22T19:55:17;14.50;99.90
13405;DHT22;6773;51.192;7.024;2022-10-22T20:00:09;14.40;99.90
13405;DHT22;6773;51.192;7.024;2022-10-22T20:02:35;14.40;99.90
13405;DHT22;6773;51.192;7.024;2022-10-22T20:05:01;14.50;99.90
13405;DHT22;6773;51.192;7.024;2022-10-22T20:07:27;14.40;99.90
13405;DHT22;6773;51.192;7.024;2022-10-22T20:14:45;14.40;99.90
13405;DHT22;6773;51.192;7.024;2022-10-22T20:24:29;14.40;99.90
13405;DHT22;6773;51.192;7.024;2022-10-22T20:26:55;14.40;99.90
13405;DHT22;6773;51.192;7.024;2022-10-22T20:29:21;14.40;99.90
13405;DHT22;6773;51.192;7.024;2022-10-22T20:31:47;14.40;99.90
13405;DHT22;6773;51.192;7.024;2022-10-22T20:36:40;14.40;99.90